createdAt,value
2022-08-03T00:00:27.391Z,101249.94
2022-08-03T00:02:54.100Z,101242.81
2022-08-03T00:05:21.172Z,101239.44
2022-08-03T00:07:48.510Z,101242.28
2022-08-03T00:10:17.028Z,101235.34
2022-08-03T00:12:43.723Z,101228.38
2022-08-03T00:15:11.328Z,101226.84
2022-08-03T00:17:53.626Z,101228.00
2022-08-03T00:20:23.820Z,101228.28
2022-08-03T00:22:50.744Z,101228.56
2022-08-03T00:25:17.708Z,101224.19
2022-08-03T00:27:44.269Z,101223.47
2022-08-03T00:30:11.334Z,101225.47
2022-08-03T00:32:38.839Z,101232.00
2022-08-03T00:35:18.298Z,101230.47
2022-08-03T00:37:58.693Z,101228.06
2022-08-03T00:40:25.312Z,101229.06
2022-08-03T00:42:56.856Z,101225.69
2022-08-03T00:45:28.647Z,101231.38
2022-08-03T00:47:55.833Z,101228.09
2022-08-03T00:50:25.033Z,101227.41
2022-08-03T00:52:53.428Z,101226.88
2022-08-03T00:55:20.473Z,101228.00
2022-08-03T00:57:47.245Z,101230.16
2022-08-03T01:00:17.405Z,101226.06
2022-08-03T01:02:44.330Z,101230.03
2022-08-03T01:05:11.422Z,101227.56
2022-08-03T01:07:48.114Z,101227.91
2022-08-03T01:10:24.705Z,101226.34
2022-08-03T01:13:00.957Z,101228.47
2022-08-03T01:15:57.861Z,101238.72
2022-08-03T01:18:42.943Z,101233.59
2022-08-03T01:21:31.773Z,101237.44
2022-08-03T01:24:13.435Z,101236.00
2022-08-03T01:26:54.848Z,101234.47
2022-08-03T01:29:36.389Z,101228.38
2022-08-03T01:32:58.464Z,101232.19
2022-08-03T01:35:13.751Z,101232.47
2022-08-03T01:37:57.882Z,101230.97
2022-08-03T01:40:27.333Z,101228.66
2022-08-03T01:42:57.721Z,101231.69
2022-08-03T01:45:24.996Z,101232.94
2022-08-03T01:47:53.485Z,101225.13
2022-08-03T01:50:29.166Z,101228.25
2022-08-03T01:52:57.916Z,101226.84
2022-08-03T01:55:29.327Z,101224.72
2022-08-03T01:58:04.872Z,101224.28
2022-08-03T02:00:35.500Z,101228.44
2022-08-03T02:03:05.443Z,101226.97
2022-08-03T02:05:32.702Z,101225.56
2022-08-03T02:08:01.885Z,101220.44
2022-08-03T02:10:34.314Z,101216.19
2022-08-03T02:13:03.961Z,101212.91
2022-08-03T02:15:32.528Z,101208.81
2022-08-03T02:18:01.848Z,101206.38
2022-08-03T02:20:31.511Z,101212.19
2022-08-03T02:22:58.210Z,101211.94
2022-08-03T02:25:24.964Z,101212.19
2022-08-03T02:27:58.068Z,101206.09
2022-08-03T02:30:38.543Z,101199.16
2022-08-03T02:33:11.151Z,101207.34
2022-08-03T02:35:40.046Z,101203.97
2022-08-03T02:38:10.269Z,101205.94
2022-08-03T02:40:38.690Z,101205.25
2022-08-03T02:43:12.374Z,101204.38
2022-08-03T02:45:45.908Z,101201.09
2022-08-03T02:48:17.638Z,101198.41
2022-08-03T02:50:46.732Z,101192.31
2022-08-03T02:53:14.412Z,101200.53
2022-08-03T02:55:45.854Z,101196.28
2022-08-03T02:58:14.145Z,101195.69
2022-08-03T03:00:44.179Z,101194.13
2022-08-03T03:03:11.440Z,101190.03
2022-08-03T03:05:55.856Z,101194.72
2022-08-03T03:08:28.661Z,101191.44
2022-08-03T03:11:01.024Z,101191.44
2022-08-03T03:13:30.346Z,101193.41
2022-08-03T03:16:01.620Z,101192.69
2022-08-03T03:18:29.301Z,101192.78
2022-08-03T03:20:57.623Z,101196.59
2022-08-03T03:23:25.523Z,101209.22
2022-08-03T03:25:53.337Z,101192.34
2022-08-03T03:28:20.864Z,101186.25
2022-08-03T03:30:52.629Z,101188.25
2022-08-03T03:33:20.581Z,101191.19
2022-08-03T03:35:47.743Z,101185.97
2022-08-03T03:38:14.467Z,101188.91
2022-08-03T03:40:41.694Z,101184.66
2022-08-03T03:43:10.032Z,101182.53
2022-08-03T03:45:37.376Z,101184.03
2022-08-03T03:48:05.461Z,101181.91
2022-08-03T03:50:34.038Z,101177.06
2022-08-03T03:53:02.218Z,101172.94
2022-08-03T03:55:28.877Z,101176.59
2022-08-03T03:57:55.485Z,101181.97
2022-08-03T04:00:22.647Z,101178.59
2022-08-03T04:02:49.297Z,101173.34
2022-08-03T04:05:34.484Z,101176.91
2022-08-03T04:08:25.845Z,101177.88
2022-08-03T04:11:07.741Z,101178.84
2022-08-03T04:13:39.040Z,101178.84
2022-08-03T04:16:08.461Z,101171.78
2022-08-03T04:18:38.730Z,101173.63
2022-08-03T04:21:10.310Z,101170.22
2022-08-03T04:23:40.676Z,101170.91
2022-08-03T04:26:12.054Z,101181.53
2022-08-03T04:28:43.254Z,101177.88
2022-08-03T04:31:10.422Z,101179.59
2022-08-03T04:33:38.939Z,101173.09
2022-08-03T04:36:08.064Z,101173.66
2022-08-03T04:38:44.201Z,101179.75
2022-08-03T04:41:11.783Z,101172.41
2022-08-03T04:43:40.874Z,101177.66
2022-08-03T04:46:09.136Z,101165.75
2022-08-03T04:48:35.929Z,101177.94
2022-08-03T04:51:04.513Z,101173.16
2022-08-03T04:53:31.372Z,101170.19
2022-08-03T04:56:05.712Z,101176.84
2022-08-03T04:58:32.900Z,101178.41
2022-08-03T05:00:59.650Z,101177.19
2022-08-03T05:03:26.331Z,101190.38
2022-08-03T05:06:01.715Z,101180.16
2022-08-03T05:08:34.586Z,101177.19
2022-08-03T05:11:01.240Z,101184.00
2022-08-03T05:13:28.059Z,101183.72
2022-08-03T05:15:54.728Z,101187.75
2022-08-03T05:18:21.395Z,101184.78
2022-08-03T05:20:48.048Z,101188.91
2022-08-03T05:23:14.775Z,101193.88
2022-08-03T05:25:49.876Z,101193.44
2022-08-03T05:28:16.904Z,101193.88
2022-08-03T05:30:43.668Z,101202.28
2022-08-03T05:33:11.016Z,101205.41
2022-08-03T05:35:57.500Z,101202.13
2022-08-03T05:38:28.503Z,101207.66
2022-08-03T05:41:20.507Z,101204.28
2022-08-03T05:43:44.967Z,101203.31
2022-08-03T05:46:13.137Z,101201.19
2022-08-03T05:48:40.706Z,101203.69
2022-08-03T05:51:11.698Z,101204.69
2022-08-03T05:53:41.981Z,101199.25
2022-08-03T05:56:13.563Z,101205.50
2022-08-03T05:58:45.556Z,101203.03
2022-08-03T06:01:12.353Z,101201.63
2022-08-03T06:03:39.328Z,101203.91
2022-08-03T06:06:06.069Z,101211.25
2022-08-03T06:08:33.073Z,101216.06
2022-08-03T06:10:59.919Z,101215.34
2022-08-03T06:13:26.556Z,101214.56
2022-08-03T06:15:53.218Z,101206.56
2022-08-03T06:18:20.073Z,101213.78
2022-08-03T06:20:47.076Z,101207.78
2022-08-03T06:23:16.302Z,101207.31
2022-08-03T06:25:44.885Z,101207.56
2022-08-03T06:28:35.244Z,101209.81
2022-08-03T06:31:00.995Z,101211.19
2022-08-03T06:34:30.508Z,101210.78
2022-08-03T06:36:14.666Z,101213.88
2022-08-03T06:38:41.357Z,101217.97
2022-08-03T06:41:08.091Z,101212.97
2022-08-03T06:43:37.639Z,101218.75
2022-08-03T06:46:05.674Z,101218.13
2022-08-03T06:48:32.490Z,101221.22
2022-08-03T06:50:59.468Z,101223.31
2022-08-03T06:53:26.258Z,101225.38
2022-08-03T06:55:54.821Z,101226.63
2022-08-03T06:58:22.262Z,101232.41
2022-08-03T07:00:48.931Z,101235.34
2022-08-03T07:03:15.864Z,101242.84
2022-08-03T07:05:43.752Z,101238.84
2022-08-03T07:08:10.614Z,101235.69
2022-08-03T07:10:37.504Z,101226.25
2022-08-03T07:13:05.071Z,101231.19
2022-08-03T07:15:53.938Z,101238.69
2022-08-03T07:18:25.620Z,101237.19
2022-08-03T07:20:58.176Z,101236.56
2022-08-03T07:23:25.736Z,101241.50
2022-08-03T07:25:52.898Z,101242.88
2022-08-03T07:28:20.162Z,101240.88
2022-08-03T07:30:47.081Z,101245.63
2022-08-03T07:33:15.343Z,101251.59
2022-08-03T07:35:42.507Z,101252.81
2022-08-03T07:38:09.149Z,101243.19
2022-08-03T07:40:35.798Z,101247.09
2022-08-03T07:43:03.609Z,101250.22
2022-08-03T07:45:31.454Z,101248.72
2022-08-03T07:47:58.255Z,101251.94
2022-08-03T07:50:25.669Z,101255.03
2022-08-03T07:52:53.714Z,101256.25
2022-08-03T07:55:23.042Z,101260.16
2022-08-03T07:58:02.638Z,101265.94
2022-08-03T08:00:29.573Z,101258.34
2022-08-03T08:02:56.252Z,101252.44
2022-08-03T08:05:22.912Z,101253.81
2022-08-03T08:07:50.745Z,101253.97
2022-08-03T08:10:18.648Z,101260.47
2022-08-03T08:12:45.532Z,101257.94
2022-08-03T08:15:12.181Z,101251.72
2022-08-03T08:17:53.625Z,101251.91
2022-08-03T08:20:28.455Z,101249.41
2022-08-03T08:23:19.248Z,101255.66
2022-08-03T08:25:53.267Z,101251.13
2022-08-03T08:28:30.758Z,101255.72
2022-08-03T08:30:59.809Z,101254.03
2022-08-03T08:33:37.272Z,101246.03
2022-08-03T08:36:14.799Z,101252.47
2022-08-03T08:38:42.727Z,101250.00
2022-08-03T08:41:11.083Z,101245.72
2022-08-03T08:43:38.042Z,101250.31
2022-08-03T08:46:08.066Z,101248.63
2022-08-03T08:48:39.497Z,101250.63
2022-08-03T08:51:08.494Z,101251.66
2022-08-03T08:53:37.685Z,101247.22
2022-08-03T08:56:07.307Z,101250.97
2022-08-03T08:58:38.925Z,101244.81
2022-08-03T09:01:05.834Z,101246.88
2022-08-03T09:03:36.343Z,101246.16
2022-08-03T09:06:04.072Z,101241.72
2022-08-03T09:08:32.336Z,101255.28
2022-08-03T09:10:59.890Z,101254.75
2022-08-03T09:13:26.806Z,101256.59
2022-08-03T09:16:12.242Z,101248.78
2022-08-03T09:18:39.888Z,101239.25
2022-08-03T09:21:31.228Z,101245.84
2022-08-03T09:24:05.702Z,101240.72
2022-08-03T09:26:37.496Z,101244.59
2022-08-03T09:29:12.860Z,101234.09
2022-08-03T09:31:46.644Z,101240.69
2022-08-03T09:34:16.300Z,101241.84
2022-08-03T09:36:46.384Z,101227.53
2022-08-03T09:39:41.421Z,101241.44
2022-08-03T09:42:15.077Z,101246.16
2022-08-03T09:44:49.108Z,101241.50
2022-08-03T09:47:28.490Z,101242.28
2022-08-03T09:50:11.961Z,101239.81
2022-08-03T09:52:52.071Z,101238.84
2022-08-03T09:56:33.293Z,101229.72
2022-08-03T09:58:11.797Z,101231.91
2022-08-03T10:01:05.353Z,101228.50
2022-08-03T10:03:36.201Z,101222.84
2022-08-03T10:06:22.824Z,101225.00
2022-08-03T10:09:11.304Z,101233.28
2022-08-03T10:11:42.159Z,101220.25
2022-08-03T10:14:19.460Z,101233.47
2022-08-03T10:16:48.353Z,101237.50
2022-08-03T10:19:19.852Z,101237.63
2022-08-03T10:21:57.078Z,101238.38
2022-08-03T10:24:28.141Z,101224.66
2022-08-03T10:27:02.950Z,101230.31
2022-08-03T10:29:33.687Z,101229.81
2022-08-03T10:32:15.705Z,101239.56
2022-08-03T10:34:44.834Z,101225.63
2022-08-03T10:37:16.212Z,101223.41
2022-08-03T10:39:53.529Z,101219.47
2022-08-03T10:42:24.906Z,101220.81
2022-08-03T10:45:03.874Z,101228.44
2022-08-03T10:47:31.762Z,101222.38
2022-08-03T10:49:59.441Z,101224.72
2022-08-03T10:52:32.895Z,101233.13
2022-08-03T10:55:21.303Z,101230.84
2022-08-03T10:57:52.552Z,101230.03
2022-08-03T11:00:27.463Z,101223.09
2022-08-03T11:03:12.168Z,101226.50
2022-08-03T11:05:49.038Z,101223.75
2022-08-03T11:08:25.049Z,101220.34
2022-08-03T11:10:55.319Z,101219.06
2022-08-03T11:13:25.153Z,101215.09
2022-08-03T11:15:59.703Z,101220.34
2022-08-03T11:18:28.586Z,101217.59
2022-08-03T11:21:00.024Z,101215.28
2022-08-03T11:24:03.572Z,101221.78
2022-08-03T11:26:33.778Z,101217.72
2022-08-03T11:29:29.359Z,101217.09
2022-08-03T11:31:56.295Z,101206.09
2022-08-03T11:34:24.660Z,101210.25
2022-08-03T11:37:26.357Z,101218.03
2022-08-03T11:39:57.293Z,101216.94
2022-08-03T11:42:24.010Z,101211.41
2022-08-03T11:44:51.869Z,101213.09
2022-08-03T11:47:20.425Z,101206.25
2022-08-03T11:49:48.734Z,101209.81
2022-08-03T11:52:17.118Z,101216.50
2022-08-03T11:54:44.110Z,101213.25
2022-08-03T11:57:10.758Z,101218.25
2022-08-03T11:59:38.755Z,101219.03
2022-08-03T12:02:12.813Z,101217.47
2022-08-03T12:04:58.803Z,101215.06
2022-08-03T12:08:04.209Z,101210.78
2022-08-03T12:10:15.648Z,101209.47
2022-08-03T12:12:46.394Z,101198.19
2022-08-03T12:15:13.863Z,101209.75
2022-08-03T12:17:41.594Z,101210.69
2022-08-03T12:20:10.509Z,101205.97
2022-08-03T12:22:40.168Z,101207.44
2022-08-03T12:25:08.712Z,101203.97
2022-08-03T12:27:36.781Z,101209.00
2022-08-03T12:30:05.066Z,101197.53
2022-08-03T12:35:01.671Z,101201.69
2022-08-03T12:37:29.589Z,101204.00
2022-08-03T12:40:10.096Z,101200.78
2022-08-03T12:42:39.408Z,101193.97
2022-08-03T12:45:38.415Z,101191.13
2022-08-03T12:48:09.221Z,101198.94
2022-08-03T12:50:37.488Z,101200.03
2022-08-03T12:53:09.311Z,101194.38
2022-08-03T12:55:57.399Z,101193.28
2022-08-03T12:58:36.882Z,101192.56
2022-08-03T13:01:09.817Z,101197.63
2022-08-03T13:03:49.876Z,101185.56
2022-08-03T13:06:24.863Z,101184.47
2022-08-03T13:09:09.838Z,101190.75
2022-08-03T13:11:55.868Z,101183.31
2022-08-03T13:14:23.670Z,101188.97
2022-08-03T13:16:51.469Z,101187.44
2022-08-03T13:19:18.161Z,101182.06
2022-08-03T13:21:53.626Z,101181.75
2022-08-03T13:24:32.153Z,101173.88
2022-08-03T13:26:59.790Z,101179.13
2022-08-03T13:29:26.422Z,101190.91
2022-08-03T13:31:53.165Z,101191.50
2022-08-03T13:34:23.538Z,101183.84
2022-08-03T13:37:19.722Z,101181.47
2022-08-03T13:39:57.170Z,101188.66
2022-08-03T13:42:27.177Z,101180.38
2022-08-03T13:44:53.928Z,101178.22
2022-08-03T13:47:21.426Z,101173.34
2022-08-03T13:49:59.364Z,101175.84
2022-08-03T13:52:28.144Z,101178.59
2022-08-03T13:54:54.849Z,101169.25
2022-08-03T13:58:04.847Z,101175.38
2022-08-03T14:00:09.056Z,101169.63
2022-08-03T14:02:35.952Z,101165.81
2022-08-03T14:05:02.835Z,101167.47
2022-08-03T14:07:29.725Z,101179.09
2022-08-03T14:09:56.963Z,101164.50
2022-08-03T14:12:23.596Z,101173.81
2022-08-03T14:14:50.494Z,101167.94
2022-08-03T14:17:17.176Z,101171.66
2022-08-03T14:19:53.117Z,101169.84
2022-08-03T14:22:21.580Z,101176.06
2022-08-03T14:24:49.155Z,101171.25
2022-08-03T14:27:16.836Z,101175.44
2022-08-03T14:29:43.745Z,101165.88
2022-08-03T14:32:13.193Z,101169.00
2022-08-03T14:34:40.642Z,101166.84
2022-08-03T14:37:07.374Z,101163.25
2022-08-03T14:42:20.880Z,101171.28
2022-08-03T14:44:47.800Z,101163.00
2022-08-03T14:47:14.795Z,101164.69
2022-08-03T14:50:30.373Z,101168.06
2022-08-03T14:52:28.505Z,101164.84
2022-08-03T14:54:55.254Z,101165.44
2022-08-03T14:57:22.223Z,101155.97
2022-08-03T14:59:55.516Z,101155.00
2022-08-03T15:02:24.723Z,101152.97
2022-08-03T15:04:53.604Z,101152.56
2022-08-03T15:07:24.631Z,101150.53
2022-08-03T15:09:51.441Z,101148.97
2022-08-03T15:12:20.156Z,101148.78
2022-08-03T15:14:47.073Z,101143.16
2022-08-03T15:17:13.781Z,101147.66
2022-08-03T15:20:02.166Z,101142.72
2022-08-03T15:22:34.633Z,101145.81
2022-08-03T15:26:03.686Z,101149.50
2022-08-03T15:28:03.700Z,101144.56
2022-08-03T15:30:33.881Z,101138.28
2022-08-03T15:33:00.562Z,101137.03
2022-08-03T15:35:28.912Z,101143.84
2022-08-03T15:37:55.688Z,101144.09
2022-08-03T15:40:22.385Z,101136.03
2022-08-03T15:42:49.282Z,101142.03
2022-08-03T15:45:17.858Z,101146.06
2022-08-03T15:47:47.121Z,101135.53
2022-08-03T15:50:13.811Z,101148.69
2022-08-03T15:52:40.498Z,101143.78
2022-08-03T15:55:07.758Z,101139.50
2022-08-03T15:57:34.397Z,101129.56
2022-08-03T16:00:20.999Z,101131.72
2022-08-03T16:03:00.974Z,101129.44
2022-08-03T16:05:28.268Z,101134.69
2022-08-03T16:08:03.264Z,101126.81
2022-08-03T16:10:31.063Z,101132.09
2022-08-03T16:12:59.013Z,101124.69
2022-08-03T16:15:26.085Z,101136.53
2022-08-03T16:17:52.755Z,101133.78
2022-08-03T16:20:29.721Z,101132.69
2022-08-03T16:22:58.232Z,101123.97
2022-08-03T16:25:25.149Z,101126.28
2022-08-03T16:27:58.368Z,101128.56
2022-08-03T16:30:34.047Z,101131.69
2022-08-03T16:33:00.779Z,101127.88
2022-08-03T16:35:27.505Z,101123.22
2022-08-03T16:37:56.296Z,101125.97
2022-08-03T16:40:25.043Z,101123.88
2022-08-03T16:42:51.759Z,101128.19
2022-08-03T16:45:18.422Z,101126.97
2022-08-03T16:47:45.037Z,101122.78
2022-08-03T16:50:18.958Z,101124.28
2022-08-03T16:52:47.465Z,101132.78
2022-08-03T16:55:18.375Z,101129.44
2022-08-03T16:58:03.775Z,101131.19
2022-08-03T17:00:32.984Z,101143.31
2022-08-03T17:03:19.170Z,101140.88
2022-08-03T17:05:50.915Z,101143.97
2022-08-03T17:08:26.900Z,101138.59
2022-08-03T17:10:54.679Z,101141.50
2022-08-03T17:13:22.565Z,101141.34
2022-08-03T17:16:01.419Z,101144.59
2022-08-03T17:18:35.395Z,101157.38
2022-08-03T17:21:05.945Z,101155.56
2022-08-03T17:23:38.694Z,101152.91
2022-08-03T17:26:20.804Z,101151.28
2022-08-03T17:28:57.333Z,101156.22
2022-08-03T17:31:30.708Z,101155.47
2022-08-03T17:34:01.124Z,101157.38
2022-08-03T17:39:16.958Z,101162.56
2022-08-03T17:41:50.042Z,101172.94
2022-08-03T17:44:33.202Z,101168.50
2022-08-03T17:47:06.832Z,101174.44
2022-08-03T17:49:39.786Z,101171.72
2022-08-03T17:52:27.391Z,101177.19
2022-08-03T17:55:55.281Z,101181.34
2022-08-03T17:58:02.644Z,101170.59
2022-08-03T18:00:51.641Z,101175.84
2022-08-03T18:03:24.770Z,101183.19
2022-08-03T18:06:10.746Z,101182.91
2022-08-03T18:08:49.594Z,101186.25
2022-08-03T18:11:21.907Z,101187.47
2022-08-03T18:14:16.594Z,101196.28
2022-08-03T18:17:10.440Z,101195.34
2022-08-03T18:20:03.530Z,101201.16
2022-08-03T18:22:30.578Z,101203.41
2022-08-03T18:25:00.307Z,101209.03
2022-08-03T18:27:45.929Z,101209.22
2022-08-03T18:30:17.144Z,101205.13
2022-08-03T18:33:00.729Z,101208.00
2022-08-03T18:35:53.923Z,101208.97
2022-08-03T18:38:16.675Z,101209.53
2022-08-03T18:40:48.800Z,101214.28
2022-08-03T18:43:17.592Z,101220.72
2022-08-03T18:45:55.754Z,101217.28
2022-08-03T18:48:59.954Z,101219.03
2022-08-03T18:51:43.272Z,101222.22
2022-08-03T18:54:45.769Z,101226.78
2022-08-03T18:57:15.360Z,101225.41
2022-08-03T18:59:49.856Z,101223.66
2022-08-03T19:02:34.285Z,101225.25
2022-08-03T19:05:10.916Z,101226.22
2022-08-03T19:07:41.746Z,101232.41
2022-08-03T19:10:10.925Z,101235.03
2022-08-03T19:12:51.376Z,101237.69
2022-08-03T19:15:36.469Z,101237.59
2022-08-03T19:18:08.889Z,101241.25
2022-08-03T19:20:37.997Z,101242.22
2022-08-03T19:23:04.738Z,101247.63
2022-08-03T19:25:39.448Z,101248.59
2022-08-03T19:28:07.839Z,101245.13
2022-08-03T19:30:39.006Z,101253.22
2022-08-03T19:33:11.618Z,101253.94
2022-08-03T19:38:30.005Z,101248.69
2022-08-03T19:40:59.738Z,101243.09
2022-08-03T19:43:49.514Z,101243.84
2022-08-03T19:46:30.188Z,101238.66
2022-08-03T19:49:15.088Z,101245.69
2022-08-03T19:52:00.595Z,101261.06
2022-08-03T19:54:45.820Z,101258.41
2022-08-03T19:57:24.348Z,101257.25
2022-08-03T19:59:53.600Z,101256.59
2022-08-03T20:02:26.152Z,101255.75
2022-08-03T20:04:57.029Z,101258.00
2022-08-03T20:07:25.821Z,101251.03
2022-08-03T20:12:41.261Z,101253.78
2022-08-03T20:15:09.153Z,101251.63
2022-08-03T20:17:56.019Z,101254.50
2022-08-03T20:20:41.523Z,101254.19
2022-08-03T20:23:18.320Z,101270.72
2022-08-03T20:25:58.718Z,101262.03
2022-08-03T20:28:49.851Z,101259.03
2022-08-03T20:31:19.638Z,101259.56
2022-08-03T20:33:49.283Z,101260.47
2022-08-03T20:36:18.254Z,101261.34
2022-08-03T20:38:48.694Z,101259.19
2022-08-03T20:41:16.800Z,101260.56
2022-08-03T20:43:44.219Z,101257.69
2022-08-03T20:46:31.328Z,101265.50
2022-08-03T20:48:58.746Z,101259.94
2022-08-03T20:51:49.682Z,101254.19
2022-08-03T20:54:20.777Z,101261.16
2022-08-03T20:56:56.587Z,101261.69
2022-08-03T20:59:23.618Z,101260.38
2022-08-03T21:01:50.936Z,101261.56
2022-08-03T21:04:20.872Z,101271.06
2022-08-03T21:06:55.974Z,101266.16
2022-08-03T21:09:33.458Z,101261.78
2022-08-03T21:12:11.900Z,101263.66
2022-08-03T21:13:03.563Z,101253.94
2022-08-03T21:13:09.931Z,101248.41
2022-08-03T21:15:03.022Z,101262.31
2022-08-03T21:17:41.466Z,101265.34
2022-08-03T21:20:12.006Z,101264.88
2022-08-03T21:22:42.335Z,101264.69
2022-08-03T21:25:10.411Z,101258.25
2022-08-03T21:27:37.351Z,101257.41
2022-08-03T21:30:09.457Z,101259.47
2022-08-03T21:32:40.329Z,101248.97
2022-08-03T21:35:11.845Z,101252.38
2022-08-03T21:37:40.137Z,101245.19
2022-08-03T21:40:08.536Z,101242.97
2022-08-03T21:42:35.421Z,101245.22
2022-08-03T21:45:06.373Z,101248.75
2022-08-03T21:47:37.145Z,101248.06
2022-08-03T21:50:09.708Z,101242.47
2022-08-03T21:52:42.068Z,101236.53
2022-08-03T21:55:18.687Z,101232.59
2022-08-03T21:57:51.589Z,101233.75
2022-08-03T22:00:20.802Z,101240.03
2022-08-03T22:02:57.376Z,101233.56
2022-08-03T22:05:42.542Z,101237.59
2022-08-03T22:08:10.836Z,101238.19
2022-08-03T22:10:38.005Z,101230.19
2022-08-03T22:13:04.770Z,101229.66
2022-08-03T22:15:32.425Z,101223.19
2022-08-03T22:18:03.353Z,101222.28
2022-08-03T22:20:30.192Z,101226.47
2022-08-03T22:22:59.962Z,101221.69
2022-08-03T22:25:30.703Z,101219.78
2022-08-03T22:28:00.930Z,101220.75
2022-08-03T22:30:28.212Z,101225.13
2022-08-03T22:32:56.375Z,101216.63
2022-08-03T22:35:26.042Z,101218.09
2022-08-03T22:37:55.498Z,101217.19
2022-08-03T22:40:22.241Z,101216.97
2022-08-03T22:42:50.607Z,101223.00
2022-08-03T22:46:06.474Z,101226.34
2022-08-03T22:48:08.325Z,101219.84
2022-08-03T22:50:35.576Z,101222.97
2022-08-03T22:53:02.722Z,101216.38
2022-08-03T22:55:29.490Z,101215.97
2022-08-03T22:57:56.553Z,101220.84
2022-08-03T23:00:24.181Z,101222.16
2022-08-03T23:02:53.560Z,101222.31
2022-08-03T23:06:01.377Z,101213.50
2022-08-03T23:08:15.086Z,101214.97
2022-08-03T23:10:46.814Z,101205.63
2022-08-03T23:13:17.085Z,101203.72
2022-08-03T23:15:50.830Z,101205.16
2022-08-03T23:18:20.849Z,101209.31
2022-08-03T23:20:51.651Z,101207.78
2022-08-03T23:23:20.040Z,101202.66
2022-08-03T23:25:49.800Z,101202.13
2022-08-03T23:28:17.549Z,101205.97
2022-08-03T23:30:45.244Z,101206.09
2022-08-03T23:33:14.367Z,101197.59
2022-08-03T23:36:29.163Z,101198.75
2022-08-03T23:38:44.987Z,101202.75
2022-08-03T23:41:13.426Z,101201.09
2022-08-03T23:43:52.263Z,101196.66
2022-08-03T23:46:22.302Z,101202.25
2022-08-03T23:48:49.892Z,101199.66
2022-08-03T23:52:03.102Z,101200.81
2022-08-03T23:54:49.936Z,101196.44
2022-08-03T23:57:36.673Z,101197.44
